Time;durP1;ratioP1;P1;durP2;ratioP2;P2;SDS_P1;SDS_P2;PMS_P1;PMS_P2;Temp;Humidity;BMP_temperature;BMP_pressure;BME280_temperature;BME280_humidity;BME280_pressure;Samples;Min_cycle;Max_cycle;Signal;HPM_P1;HPM_P2
2021/05/24 00:00:48;;;;;;;87.55;62.95;;;20.10;61.90;;;;;;5092840;28;20501;-64
2021/05/24 00:03:14;;;;;;;82.65;58.72;;;20.10;61.90;;;;;;5092439;28;20523;-64
2021/05/24 00:05:40;;;;;;;76.88;53.88;;;20.00;61.70;;;;;;5092794;28;20043;-64
2021/05/24 00:08:07;;;;;;;67.85;49.35;;;20.00;61.60;;;;;;5092568;28;20038;-64
2021/05/24 00:10:35;;;;;;;67.45;46.95;;;20.00;61.40;;;;;;5091259;28;20507;-64
2021/05/24 00:13:04;;;;;;;64.15;45.40;;;20.00;61.10;;;;;;5091284;28;20043;-64
2021/05/24 00:15:38;;;;;;;58.13;41.85;;;20.00;60.80;;;;;;5092070;28;20035;-64
2021/05/24 00:18:05;;;;;;;54.50;40.17;;;20.00;60.60;;;;;;5092741;28;20059;-64
2021/05/24 00:20:37;;;;;;;51.22;36.40;;;20.00;60.50;;;;;;5092310;28;20051;-64
2021/05/24 00:23:04;;;;;;;48.08;32.53;;;20.00;60.40;;;;;;5092496;28;20044;-64
2021/05/24 00:25:30;;;;;;;49.33;33.17;;;20.00;60.30;;;;;;5092185;28;20156;-64
2021/05/24 00:27:57;;;;;;;42.45;31.02;;;20.00;60.20;;;;;;5092660;28;20038;-64
2021/05/24 00:30:23;;;;;;;43.55;29.90;;;20.00;60.20;;;;;;5092383;28;20081;-64
2021/05/24 00:32:49;;;;;;;34.72;25.60;;;20.00;60.20;;;;;;5092808;28;20034;-64
2021/05/24 00:35:15;;;;;;;35.42;26.27;;;20.00;60.20;;;;;;5092452;28;20047;-64
2021/05/24 00:37:41;;;;;;;32.67;22.23;;;20.00;60.00;;;;;;5092247;28;20173;-64
2021/05/24 00:40:08;;;;;;;33.17;23.38;;;20.00;59.90;;;;;;5092359;28;20047;-65
2021/05/24 00:42:35;;;;;;;29.77;20.75;;;20.00;59.80;;;;;;5091038;28;20407;-65
2021/05/24 00:45:02;;;;;;;29.85;21.27;;;20.00;59.80;;;;;;5092234;28;20078;-64
2021/05/24 00:47:28;;;;;;;25.70;19.55;;;20.00;59.80;;;;;;5092247;28;20038;-64
2021/05/24 00:49:54;;;;;;;27.77;18.35;;;20.00;59.80;;;;;;5092632;28;20462;-64
2021/05/24 00:52:19;;;;;;;24.67;17.77;;;20.00;59.70;;;;;;5092033;28;20048;-64
2021/05/24 00:54:45;;;;;;;25.48;17.48;;;20.00;59.60;;;;;;5092212;28;20036;-64
2021/05/24 00:57:11;;;;;;;22.08;16.83;;;20.00;59.60;;;;;;5091875;28;20068;-64
2021/05/24 00:59:37;;;;;;;19.85;15.20;;;20.00;59.60;;;;;;5092145;28;20041;-64
2021/05/24 01:02:03;;;;;;;22.20;15.07;;;20.00;59.50;;;;;;5091846;28;20399;-64
2021/05/24 01:04:29;;;;;;;22.55;15.07;;;20.00;59.50;;;;;;5092336;28;20448;-64
2021/05/24 01:06:56;;;;;;;20.48;15.60;;;20.00;59.40;;;;;;5092424;28;20538;-64
2021/05/24 01:09:23;;;;;;;22.15;12.82;;;20.00;59.30;;;;;;5092196;28;20035;-64
2021/05/24 01:11:49;;;;;;;19.58;13.90;;;20.00;59.30;;;;;;5091673;28;20045;-65
2021/05/24 01:14:16;;;;;;;17.00;12.70;;;20.00;59.40;;;;;;5092092;28;20497;-64
2021/05/24 01:16:45;;;;;;;18.17;11.93;;;20.00;59.30;;;;;;5092046;28;20151;-64
2021/05/24 01:19:11;;;;;;;17.42;12.27;;;20.00;59.30;;;;;;5090691;28;20396;-64
2021/05/24 01:21:37;;;;;;;17.67;11.63;;;20.00;59.30;;;;;;5090796;28;20054;-64
2021/05/24 01:24:03;;;;;;;15.70;11.23;;;20.00;59.30;;;;;;5091660;28;20407;-64
2021/05/24 01:26:29;;;;;;;16.75;10.85;;;20.00;59.30;;;;;;5092308;28;20041;-64
2021/05/24 01:28:54;;;;;;;14.80;11.00;;;20.00;59.30;;;;;;5091591;28;20131;-64
2021/05/24 01:31:20;;;;;;;15.27;10.85;;;19.90;59.20;;;;;;5092216;28;20082;-64
2021/05/24 01:33:46;;;;;;;14.20;9.80;;;20.00;59.20;;;;;;5093014;28;20092;-63
2021/05/24 01:36:12;;;;;;;12.95;9.25;;;19.90;59.20;;;;;;5095300;28;20091;-64
2021/05/24 01:38:41;;;;;;;13.98;9.60;;;19.90;59.20;;;;;;5095331;28;20074;-64
2021/05/24 01:41:12;;;;;;;11.80;8.57;;;19.90;59.10;;;;;;5095268;28;20051;-64
2021/05/24 01:43:37;;;;;;;;;;;19.90;59.00;;;;;;5095469;28;20438;-64
2021/05/24 01:46:04;;;;;;;13.93;8.73;;;19.90;59.00;;;;;;5095164;28;19982;-64
2021/05/24 01:48:31;;;;;;;16.45;9.15;;;19.90;58.90;;;;;;5095259;28;20081;-64
2021/05/24 01:50:57;;;;;;;13.93;8.65;;;20.00;59.00;;;;;;5095431;28;20041;-64
2021/05/24 01:53:24;;;;;;;12.35;7.38;;;19.90;58.80;;;;;;5095186;28;20046;-65
2021/05/24 01:55:50;;;;;;;11.30;8.27;;;19.90;58.80;;;;;;5094750;28;20047;-64
2021/05/24 01:58:17;;;;;;;9.70;6.53;;;19.90;58.80;;;;;;5095284;28;20048;-64
2021/05/24 02:00:43;;;;;;;10.45;5.95;;;19.90;58.80;;;;;;5094928;28;20052;-64
2021/05/24 02:03:10;;;;;;;10.35;7.05;;;19.90;58.90;;;;;;5094975;28;20036;-64
2021/05/24 02:05:36;;;;;;;10.57;6.45;;;19.90;59.10;;;;;;5094702;28;20038;-64
2021/05/24 02:08:03;;;;;;;10.82;6.78;;;19.90;59.30;;;;;;5094988;28;20035;-64
2021/05/24 02:10:31;;;;;;;9.90;6.63;;;19.90;59.40;;;;;;5094632;28;20463;-64
2021/05/24 02:12:58;;;;;;;13.50;6.53;;;19.90;59.50;;;;;;5094964;28;20404;-64
2021/05/24 02:15:32;;;;;;;9.50;5.95;;;19.90;59.50;;;;;;5094560;28;20154;-64
2021/05/24 02:17:58;;;;;;;8.20;6.00;;;19.90;59.50;;;;;;5094770;28;20056;-64
2021/05/24 02:20:27;;;;;;;9.25;5.60;;;19.90;59.50;;;;;;5094498;28;20077;-64
2021/05/24 02:22:54;;;;;;;10.82;5.40;;;19.90;59.50;;;;;;5094551;28;20035;-63
2021/05/24 02:25:20;;;;;;;8.93;5.28;;;19.90;59.50;;;;;;5094339;28;20491;-64
2021/05/24 02:27:46;;;;;;;10.75;5.55;;;19.90;59.50;;;;;;5094745;28;20086;-64
2021/05/24 02:30:15;;;;;;;8.45;5.60;;;19.90;59.50;;;;;;5094815;28;20134;-64
2021/05/24 02:32:41;;;;;;;8.15;5.18;;;19.90;59.60;;;;;;5094504;28;20478;-64
2021/05/24 02:35:10;;;;;;;10.63;5.32;;;19.90;59.60;;;;;;5094253;28;20138;-64
2021/05/24 02:37:36;;;;;;;11.18;4.95;;;19.80;59.60;;;;;;5094159;28;20098;-64
2021/05/24 02:40:07;;;;;;;9.07;4.93;;;19.90;59.60;;;;;;5094470;28;20399;-64
2021/05/24 02:42:33;;;;;;;7.50;4.68;;;19.80;59.60;;;;;;5092979;28;20049;-63
2021/05/24 02:44:59;;;;;;;9.75;5.55;;;19.80;59.50;;;;;;5094278;28;20121;-64
2021/05/24 02:47:24;;;;;;;7.80;4.22;;;19.80;59.40;;;;;;5093832;28;20122;-64
2021/05/24 02:49:50;;;;;;;7.75;4.90;;;19.80;59.40;;;;;;5093914;28;20130;-64
2021/05/24 02:52:16;;;;;;;7.22;4.35;;;19.80;59.50;;;;;;5093982;28;20126;-64
2021/05/24 02:54:41;;;;;;;6.45;4.10;;;19.80;59.50;;;;;;5094134;28;20467;-64
2021/05/24 02:57:07;;;;;;;6.00;3.92;;;19.80;59.50;;;;;;5093855;28;20070;-64
2021/05/24 02:59:33;;;;;;;7.28;4.40;;;19.80;59.70;;;;;;5094138;28;20398;-64
2021/05/24 03:02:03;;;;;;;6.18;4.07;;;19.70;59.70;;;;;;5093566;28;20046;-64
2021/05/24 03:04:30;;;;;;;7.50;3.95;;;19.70;59.80;;;;;;5093736;28;20039;-64
2021/05/24 03:06:56;;;;;;;8.05;4.15;;;19.70;59.90;;;;;;5093784;28;20048;-63
2021/05/24 03:09:22;;;;;;;12.05;4.85;;;19.70;60.00;;;;;;5093617;28;20404;-63
2021/05/24 03:11:48;;;;;;;7.93;4.38;;;19.70;60.20;;;;;;5093700;28;20046;-64
2021/05/24 03:14:13;;;;;;;6.07;4.07;;;19.70;60.40;;;;;;5093669;28;20042;-64
2021/05/24 03:16:39;;;;;;;8.55;4.47;;;19.70;60.70;;;;;;5093374;28;20065;-64
2021/05/24 03:19:05;;;;;;;5.60;4.07;;;19.70;60.90;;;;;;5091942;28;20453;-64
2021/05/24 03:21:31;;;;;;;7.55;3.63;;;19.60;61.10;;;;;;5094053;28;20044;-64
2021/05/24 03:23:57;;;;;;;5.35;4.38;;;19.60;61.60;;;;;;5093319;28;20059;-64
2021/05/24 03:26:23;;;;;;;6.28;4.10;;;19.60;61.90;;;;;;5092037;28;20047;-64
2021/05/24 03:28:49;;;;;;;5.40;3.83;;;19.70;62.10;;;;;;5093229;28;20084;-64
2021/05/24 03:31:14;;;;;;;6.45;4.05;;;19.70;62.40;;;;;;5093304;28;20042;-64
2021/05/24 03:33:40;;;;;;;8.90;5.05;;;19.60;62.30;;;;;;5092991;28;20137;-64
2021/05/24 03:36:07;;;;;;;7.70;4.18;;;19.60;62.30;;;;;;5092996;28;20110;-64
2021/05/24 03:38:34;;;;;;;8.35;4.57;;;19.60;62.40;;;;;;5093451;28;20034;-64
2021/05/24 03:41:00;;;;;;;10.48;5.03;;;19.60;62.50;;;;;;5092949;28;20043;-64
2021/05/24 03:43:25;;;;;;;6.25;4.40;;;19.60;62.50;;;;;;5093195;28;20047;-64
2021/05/24 03:45:51;;;;;;;7.43;4.43;;;19.60;62.60;;;;;;5091426;28;20048;-64
2021/05/24 03:48:17;;;;;;;7.50;4.75;;;19.60;62.80;;;;;;5092873;28;20043;-64
2021/05/24 03:50:42;;;;;;;5.22;4.50;;;19.50;62.70;;;;;;5092768;28;20051;-64
2021/05/24 03:53:08;;;;;;;5.50;3.72;;;19.50;62.70;;;;;;5092944;28;20056;-64
2021/05/24 03:55:34;;;;;;;5.20;4.03;;;19.50;62.70;;;;;;5092739;28;20044;-64
2021/05/24 03:58:01;;;;;;;7.07;4.28;;;19.60;62.80;;;;;;5092453;28;20176;-64
2021/05/24 04:00:27;;;;;;;7.85;4.85;;;19.50;62.70;;;;;;5092768;28;20431;-64
2021/05/24 04:02:53;;;;;;;7.00;3.95;;;19.60;62.80;;;;;;5092815;28;20034;-64
2021/05/24 04:05:39;;;;;;;7.55;4.05;;;19.60;62.70;;;;;;5092727;28;20039;-64
2021/05/24 04:08:06;;;;;;;6.13;3.92;;;19.50;62.60;;;;;;5092869;28;20092;-64
2021/05/24 04:10:36;;;;;;;6.30;3.97;;;19.50;62.50;;;;;;5092364;28;20428;-64
2021/05/24 04:13:03;;;;;;;5.65;4.07;;;19.50;62.40;;;;;;5092743;28;20077;-64
2021/05/24 04:15:29;;;;;;;7.25;3.97;;;19.50;62.30;;;;;;5092396;28;20139;-64
2021/05/24 04:17:58;;;;;;;5.20;3.53;;;19.50;62.20;;;;;;5092652;28;20102;-64
2021/05/24 04:20:24;;;;;;;7.60;4.30;;;19.50;62.10;;;;;;5092706;28;20046;-63
2021/05/24 04:22:50;;;;;;;5.53;3.30;;;19.50;62.90;;;;;;5092363;28;20504;-64
2021/05/24 04:25:16;;;;;;;5.20;3.40;;;19.50;62.10;;;;;;5092555;28;20164;-64
2021/05/24 04:27:41;;;;;;;4.75;3.70;;;19.50;62.20;;;;;;5092323;28;20113;-64
2021/05/24 04:30:10;;;;;;;8.98;4.45;;;19.50;62.10;;;;;;5092238;28;20514;-64
2021/05/24 04:32:36;;;;;;;5.65;3.72;;;19.50;62.00;;;;;;5092327;28;20046;-64
2021/05/24 04:35:02;;;;;;;7.40;4.13;;;19.50;61.70;;;;;;5092698;28;20408;-64
2021/05/24 04:37:28;;;;;;;6.78;3.58;;;19.50;61.50;;;;;;5091980;28;20085;-64
2021/05/24 04:39:54;;;;;;;7.53;3.65;;;19.50;61.40;;;;;;5092282;28;20035;-63
2021/05/24 04:42:21;;;;;;;5.90;3.55;;;19.50;61.30;;;;;;5091839;28;20047;-64
2021/05/24 04:44:47;;;;;;;7.45;3.25;;;19.50;61.30;;;;;;5092057;28;20062;-64
2021/05/24 04:47:13;;;;;;;5.40;3.55;;;19.50;61.40;;;;;;5092076;28;20049;-64
2021/05/24 04:49:38;;;;;;;6.15;3.33;;;19.50;61.30;;;;;;5092380;28;20051;-64
2021/05/24 04:52:04;;;;;;;7.95;3.35;;;19.50;61.30;;;;;;5092550;28;20125;-65
2021/05/24 04:54:30;;;;;;;7.30;3.08;;;19.50;61.40;;;;;;5092113;28;20035;-64
2021/05/24 04:56:56;;;;;;;5.75;3.08;;;19.50;61.50;;;;;;5092066;28;20068;-64
2021/05/24 04:59:22;;;;;;;8.77;3.45;;;19.50;61.50;;;;;;5091829;28;20047;-64
2021/05/24 05:01:48;;;;;;;5.97;3.00;;;19.50;61.50;;;;;;5092285;28;20038;-64
2021/05/24 05:04:15;;;;;;;5.32;2.85;;;19.50;61.50;;;;;;5092119;28;20046;-63
2021/05/24 05:06:41;;;;;;;5.47;3.97;;;19.50;61.60;;;;;;5092275;28;20169;-63
2021/05/24 05:09:07;;;;;;;5.32;2.97;;;19.50;61.60;;;;;;5093694;28;20048;-63
2021/05/24 05:11:33;;;;;;;5.47;2.85;;;19.50;61.70;;;;;;5095936;28;20036;-64
2021/05/24 05:13:58;;;;;;;6.75;3.20;;;19.50;62.00;;;;;;5095541;28;20039;-63
2021/05/24 05:16:24;;;;;;;3.38;2.88;;;19.50;62.10;;;;;;5095894;28;20508;-64
2021/05/24 05:18:50;;;;;;;7.15;2.60;;;19.50;62.30;;;;;;5095607;28;20181;-64
2021/05/24 05:21:16;;;;;;;5.93;2.65;;;19.50;62.30;;;;;;5096298;28;20042;-64
2021/05/24 05:23:42;;;;;;;4.25;2.53;;;19.50;62.20;;;;;;5095652;28;20063;-65
2021/05/24 05:26:07;;;;;;;6.53;3.35;;;19.40;62.20;;;;;;5095665;28;20059;-64
2021/05/24 05:28:33;;;;;;;5.28;3.38;;;19.40;62.10;;;;;;5095420;28;20070;-64
2021/05/24 05:30:59;;;;;;;3.92;2.50;;;19.40;62.20;;;;;;5095568;28;20044;-64
2021/05/24 05:33:24;;;;;;;5.22;3.30;;;19.40;62.00;;;;;;5095580;28;20039;-64
2021/05/24 05:35:54;;;;;;;6.82;2.72;;;19.40;62.00;;;;;;5094761;28;20046;-64
2021/05/24 05:38:20;;;;;;;4.82;2.13;;;19.40;62.10;;;;;;5095410;28;20066;-64
2021/05/24 05:40:48;;;;;;;4.00;2.20;;;19.40;62.10;;;;;;5095167;28;20097;-64
2021/05/24 05:43:14;;;;;;;4.78;2.45;;;19.40;62.10;;;;;;5095290;28;20035;-64
2021/05/24 05:45:40;;;;;;;4.00;2.53;;;19.40;62.10;;;;;;5095037;28;20377;-64
2021/05/24 05:48:05;;;;;;;4.35;2.78;;;19.40;62.20;;;;;;5095257;28;20045;-63
2021/05/24 05:50:33;;;;;;;5.03;2.67;;;19.40;62.20;;;;;;5095060;28;20118;-64
2021/05/24 05:52:58;;;;;;;5.55;2.42;;;19.40;62.30;;;;;;5095204;28;20039;-64
2021/05/24 05:55:24;;;;;;;6.53;2.97;;;19.40;62.20;;;;;;5094709;28;20066;-65
2021/05/24 05:57:50;;;;;;;7.00;3.08;;;19.40;62.30;;;;;;5095040;28;20520;-64
2021/05/24 06:00:17;;;;;;;4.75;2.75;;;19.40;62.30;;;;;;5095205;28;20047;-64
2021/05/24 06:02:43;;;;;;;4.72;2.75;;;19.40;62.40;;;;;;5095013;28;20066;-64
2021/05/24 06:05:10;;;;;;;5.57;2.55;;;19.40;62.60;;;;;;5094987;28;20131;-64
2021/05/24 06:07:36;;;;;;;4.40;2.28;;;19.40;62.60;;;;;;5094748;28;20131;-64
2021/05/24 06:10:02;;;;;;;2.97;2.40;;;19.40;62.60;;;;;;5094638;28;20077;-64
2021/05/24 06:12:28;;;;;;;5.57;2.30;;;19.40;62.60;;;;;;5094638;28;20119;-63
2021/05/24 06:14:54;;;;;;;4.07;2.30;;;19.50;62.40;;;;;;5094853;28;20035;-62
2021/05/24 06:17:20;;;;;;;5.10;2.67;;;19.50;62.20;;;;;;5093293;28;20123;-64
2021/05/24 06:19:45;;;;;;;3.42;2.17;;;19.60;61.90;;;;;;5094294;28;20048;-61
2021/05/24 06:22:11;;;;;;;3.17;2.28;;;19.60;61.80;;;;;;5094345;28;20576;-66
2021/05/24 06:24:37;;;;;;;5.22;2.58;;;19.70;61.60;;;;;;5094363;28;20528;-64
2021/05/24 06:27:02;;;;;;;4.07;2.78;;;19.70;61.60;;;;;;5094050;28;20051;-65
2021/05/24 06:29:28;;;;;;;4.10;2.35;;;19.70;61.40;;;;;;5094825;28;20054;-65
2021/05/24 06:31:56;;;;;;;4.75;2.60;;;19.70;61.50;;;;;;5094248;28;20039;-66
2021/05/24 06:34:21;;;;;;;5.78;3.10;;;19.70;61.80;;;;;;5094217;28;20040;-72
2021/05/24 06:36:47;;;;;;;8.30;3.83;;;19.70;61.90;;;;;;5093460;28;20102;-62
2021/05/24 06:39:13;;;;;;;3.67;2.00;;;19.70;61.90;;;;;;5094152;28;20088;-62
2021/05/24 06:41:39;;;;;;;5.63;2.33;;;19.70;61.90;;;;;;5094119;28;20048;-63
2021/05/24 06:44:06;;;;;;;5.05;2.30;;;19.70;62.00;;;;;;5094403;28;20034;-63
2021/05/24 06:46:31;;;;;;;7.82;3.30;;;19.70;62.10;;;;;;5094255;28;20488;-63
2021/05/24 06:48:57;;;;;;;3.88;2.25;;;19.70;62.10;;;;;;5094075;28;20088;-63
2021/05/24 06:51:23;;;;;;;5.05;2.35;;;19.70;62.20;;;;;;5094007;28;20137;-66
2021/05/24 06:53:48;;;;;;;3.47;2.40;;;19.70;62.20;;;;;;5093685;28;20043;-63
2021/05/24 06:56:14;;;;;;;2.90;2.13;;;19.70;62.20;;;;;;5093746;28;20067;-62
2021/05/24 06:58:40;;;;;;;5.85;2.50;;;19.70;62.30;;;;;;5093826;28;20412;-62
2021/05/24 07:01:06;;;;;;;3.70;2.22;;;19.70;62.40;;;;;;5094003;28;20450;-62
2021/05/24 07:03:31;;;;;;;2.75;2.03;;;19.70;62.30;;;;;;5093558;28;20045;-62
2021/05/24 07:05:57;;;;;;;4.05;2.15;;;19.70;62.40;;;;;;5093866;28;20043;-63
2021/05/24 07:08:23;;;;;;;4.97;2.50;;;19.70;62.40;;;;;;5093726;28;20451;-65
2021/05/24 07:10:49;;;;;;;3.67;1.88;;;19.70;62.40;;;;;;5093625;28;20043;-60
2021/05/24 07:13:15;;;;;;;6.20;3.22;;;19.70;63.30;;;;;;5093665;28;20090;-62
2021/05/24 07:15:41;;;;;;;5.63;2.30;;;19.70;62.50;;;;;;5093459;28;20039;-63
2021/05/24 07:18:07;;;;;;;4.18;2.75;;;19.70;62.20;;;;;;5093314;28;20078;-66
2021/05/24 07:20:33;;;;;;;11.25;7.25;;;19.50;65.10;;;;;;5093541;28;20145;-66
2021/05/24 07:22:59;;;;;;;22.30;18.52;;;19.20;66.80;;;;;;5093316;28;20089;-66
2021/05/24 07:25:26;;;;;;;64.50;46.08;;;19.00;67.50;;;;;;5093001;28;20066;-65
2021/05/24 07:27:52;;;;;;;100.20;69.95;;;18.70;68.60;;;;;;5093615;28;20371;-64
2021/05/24 07:30:17;;;;;;;92.00;66.32;;;18.60;68.80;;;;;;5093113;28;20073;-64
2021/05/24 07:32:44;;;;;;;114.13;78.32;;;18.50;68.20;;;;;;5092510;28;20474;-65
2021/05/24 07:35:10;;;;;;;71.47;52.05;;;18.50;69.00;;;;;;5092899;28;20042;-65
2021/05/24 07:37:36;;;;;;;33.92;23.25;;;18.40;69.50;;;;;;5093150;28;20087;-66
2021/05/24 07:40:04;;;;;;;16.98;11.63;;;18.30;70.40;;;;;;5092866;28;20047;-66
2021/05/24 07:42:29;;;;;;;15.52;10.27;;;18.20;71.10;;;;;;5093479;28;20058;-64
2021/05/24 07:44:55;;;;;;;13.13;7.93;;;18.40;70.90;;;;;;5093098;28;20077;-65
2021/05/24 07:47:21;;;;;;;17.13;10.60;;;18.60;69.90;;;;;;5092550;28;20046;-64
2021/05/24 07:49:47;;;;;;;16.25;10.43;;;18.80;69.10;;;;;;5092666;28;20059;-64
2021/05/24 07:52:14;;;;;;;19.33;11.02;;;19.00;68.20;;;;;;5092567;28;20081;-64
2021/05/24 07:54:39;;;;;;;18.60;11.32;;;19.10;67.30;;;;;;5092749;28;20122;-64
2021/05/24 07:57:06;;;;;;;16.38;10.93;;;19.20;66.70;;;;;;5091901;28;20146;-64
2021/05/24 07:59:32;;;;;;;19.10;11.95;;;19.30;66.30;;;;;;5093034;28;20048;-64
2021/05/24 08:02:00;;;;;;;15.57;10.38;;;19.30;65.90;;;;;;5091438;28;20458;-66
2021/05/24 08:04:26;;;;;;;18.33;11.27;;;19.40;65.70;;;;;;5092191;28;20039;-63
2021/05/24 08:06:52;;;;;;;16.50;11.27;;;19.40;65.50;;;;;;5089654;28;20067;-64
2021/05/24 08:09:17;;;;;;;17.35;11.77;;;19.40;65.30;;;;;;5092495;28;20704;-64
2021/05/24 08:11:43;;;;;;;16.30;10.98;;;19.40;65.20;;;;;;5092355;28;20496;-64
2021/05/24 08:14:14;;;;;;;18.52;11.10;;;19.40;65.10;;;;;;5092707;28;20054;-64
2021/05/24 08:16:40;;;;;;;17.63;11.07;;;19.40;65.00;;;;;;5092396;28;20151;-64
2021/05/24 08:19:05;;;;;;;21.92;10.95;;;19.40;64.90;;;;;;5092638;28;20043;-64
2021/05/24 08:21:31;;;;;;;18.33;11.23;;;19.40;64.80;;;;;;5092389;28;20485;-64
2021/05/24 08:23:57;;;;;;;17.23;11.45;;;19.40;64.70;;;;;;5092469;28;20593;-63
2021/05/24 08:26:23;;;;;;;16.08;10.75;;;19.40;64.60;;;;;;5092090;28;20041;-64
2021/05/24 08:28:48;;;;;;;15.95;11.15;;;19.50;64.50;;;;;;5092221;28;20056;-64
2021/05/24 08:31:14;;;;;;;15.02;10.65;;;19.50;64.50;;;;;;5092329;28;20447;-64
2021/05/24 08:33:40;;;;;;;15.98;10.18;;;19.50;64.40;;;;;;5092032;28;20072;-63
2021/05/24 08:36:06;;;;;;;16.65;10.48;;;19.50;64.30;;;;;;5092139;28;20091;-64
2021/05/24 08:38:31;;;;;;;15.07;11.05;;;19.50;64.20;;;;;;5092247;28;20043;-64
2021/05/24 08:41:05;;;;;;;14.07;9.55;;;19.50;64.10;;;;;;5092367;28;20118;-64
2021/05/24 08:43:31;;;;;;;15.35;10.73;;;19.50;64.00;;;;;;5094812;28;20059;-65
2021/05/24 08:45:59;;;;;;;14.52;9.20;;;19.50;64.00;;;;;;5096397;28;20082;-64
2021/05/24 08:48:25;;;;;;;14.63;9.55;;;19.50;64.00;;;;;;5096040;28;20063;-63
2021/05/24 08:50:50;;;;;;;18.25;9.73;;;19.50;63.90;;;;;;5096188;28;20485;-63
2021/05/24 08:53:16;;;;;;;16.13;10.48;;;19.50;63.80;;;;;;5096239;28;20499;-64
2021/05/24 08:55:41;;;;;;;13.90;9.80;;;19.50;63.80;;;;;;5096147;28;20040;-63
2021/05/24 08:58:08;;;;;;;15.75;9.57;;;19.50;63.70;;;;;;5096306;28;20071;-64
2021/05/24 09:00:35;;;;;;;12.55;8.85;;;19.50;63.70;;;;;;5096053;28;20043;-64
2021/05/24 09:03:01;;;;;;;15.35;9.55;;;19.50;63.70;;;;;;5096220;28;20045;-63
2021/05/24 09:05:30;;;;;;;14.80;10.25;;;19.50;63.60;;;;;;5095917;28;20136;-63
2021/05/24 09:08:03;;;;;;;12.77;8.70;;;19.50;63.50;;;;;;5096452;28;20035;-63
2021/05/24 09:10:30;;;;;;;13.80;8.93;;;19.50;63.50;;;;;;5096077;28;20044;-63
2021/05/24 09:12:57;;;;;;;13.35;8.50;;;19.50;63.40;;;;;;5095994;28;20038;-63
2021/05/24 09:15:25;;;;;;;13.80;8.77;;;19.50;63.30;;;;;;5095784;28;20051;-64
2021/05/24 09:17:53;;;;;;;13.48;9.07;;;19.50;63.30;;;;;;5095477;28;20496;-64
2021/05/24 09:20:19;;;;;;;14.45;8.85;;;19.50;63.30;;;;;;5095398;28;20443;-64
2021/05/24 09:22:45;;;;;;;12.98;9.48;;;19.50;63.20;;;;;;5095860;28;20035;-64
2021/05/24 09:25:11;;;;;;;10.63;8.13;;;19.50;63.20;;;;;;5093973;28;20063;-64
2021/05/24 09:27:40;;;;;;;11.98;8.82;;;19.50;63.20;;;;;;5095626;28;20564;-64
2021/05/24 09:30:07;;;;;;;13.17;9.27;;;19.50;63.20;;;;;;5095516;28;20034;-65
2021/05/24 09:32:33;;;;;;;14.57;8.63;;;19.50;63.10;;;;;;5095441;28;20127;-65
2021/05/24 09:35:02;;;;;;;12.43;8.55;;;19.50;63.00;;;;;;5095826;28;20035;-64
2021/05/24 09:37:31;;;;;;;13.95;8.27;;;19.60;63.10;;;;;;5095008;28;20083;-64
2021/05/24 09:39:57;;;;;;;12.60;8.00;;;19.60;63.10;;;;;;5095529;28;20093;-64
2021/05/24 09:42:23;;;;;;;11.65;8.50;;;19.50;63.00;;;;;;5094143;28;20035;-64
2021/05/24 09:44:54;;;;;;;14.23;9.23;;;19.50;62.90;;;;;;5095335;28;20049;-65
2021/05/24 09:47:35;;;;;;;;;;;19.60;62.90;;;;;;5095405;28;20449;-65
2021/05/24 09:50:21;;;;;;;13.02;8.35;;;19.50;62.80;;;;;;5095422;28;19928;-64
2021/05/24 09:52:47;;;;;;;10.73;7.00;;;19.60;62.80;;;;;;5094954;28;20035;-64
2021/05/24 09:55:27;;;;;;;11.60;7.57;;;19.50;62.80;;;;;;5094225;28;20043;-66
2021/05/24 09:57:56;;;;;;;13.38;8.35;;;19.60;62.80;;;;;;5094997;28;20097;-64
2021/05/24 10:00:30;;;;;;;12.85;8.05;;;19.60;62.80;;;;;;5095107;28;20090;-64
2021/05/24 10:02:57;;;;;;;10.45;7.45;;;19.60;62.80;;;;;;5093409;28;20546;-64
2021/05/24 10:05:38;;;;;;;12.07;7.65;;;19.60;62.70;;;;;;5094853;28;20037;-64
2021/05/24 10:08:04;;;;;;;14.10;7.97;;;19.60;62.70;;;;;;5094775;28;20047;-64
2021/05/24 10:10:30;;;;;;;10.93;7.80;;;19.50;62.60;;;;;;5094792;28;20092;-64
2021/05/24 10:12:57;;;;;;;11.43;8.38;;;19.60;62.70;;;;;;5094636;28;20045;-64
2021/05/24 10:15:24;;;;;;;10.35;7.22;;;19.60;62.60;;;;;;5094796;28;20038;-64
2021/05/24 10:17:57;;;;;;;13.23;7.70;;;19.50;62.60;;;;;;5094296;28;20205;-64
2021/05/24 10:20:23;;;;;;;10.27;7.38;;;19.60;62.60;;;;;;5094569;28;20037;-64
2021/05/24 10:22:50;;;;;;;11.45;7.45;;;19.50;62.50;;;;;;5093056;28;20138;-65
2021/05/24 10:25:16;;;;;;;10.43;7.30;;;19.60;62.50;;;;;;5094834;28;20038;-64
2021/05/24 10:27:42;;;;;;;9.90;7.50;;;19.60;62.40;;;;;;5094928;28;20054;-64
2021/05/24 10:30:10;;;;;;;10.52;6.95;;;19.60;62.40;;;;;;5093250;28;20065;-65
2021/05/24 10:32:37;;;;;;;10.13;7.55;;;19.60;62.40;;;;;;5094573;28;20045;-64
2021/05/24 10:35:29;;;;;;;8.80;6.60;;;19.60;62.30;;;;;;5093994;28;20046;-64
2021/05/24 10:37:55;;;;;;;11.07;7.45;;;19.60;62.40;;;;;;5094386;28;20108;-64
2021/05/24 10:40:21;;;;;;;11.35;8.32;;;19.60;62.30;;;;;;5094321;28;20073;-64
2021/05/24 10:42:46;;;;;;;12.10;8.10;;;19.60;62.30;;;;;;5094212;28;20051;-64
2021/05/24 10:45:24;;;;;;;9.45;6.85;;;19.60;62.30;;;;;;5094102;28;20104;-65
2021/05/24 10:47:59;;;;;;;10.68;8.02;;;19.60;62.30;;;;;;5094139;28;20041;-65
2021/05/24 10:50:26;;;;;;;10.88;7.25;;;19.60;62.30;;;;;;5092899;28;20051;-65
2021/05/24 10:53:03;;;;;;;11.52;7.40;;;19.60;62.30;;;;;;5094200;28;20128;-64
2021/05/24 10:55:29;;;;;;;8.40;6.40;;;19.60;62.30;;;;;;5093848;28;20041;-64
2021/05/24 10:58:03;;;;;;;9.98;6.75;;;19.60;62.30;;;;;;5093558;28;20125;-65
2021/05/24 11:00:51;;;;;;;10.55;7.82;;;19.60;62.20;;;;;;5093917;28;20167;-64
2021/05/24 11:03:18;;;;;;;10.90;7.47;;;19.60;62.20;;;;;;5094091;28;20098;-64
2021/05/24 11:06:06;;;;;;;11.98;7.68;;;19.60;62.10;;;;;;5092893;28;20050;-65
2021/05/24 11:08:34;;;;;;;10.90;7.07;;;19.60;62.00;;;;;;5091806;28;20120;-64
2021/05/24 11:11:27;;;;;;;10.85;6.35;;;19.60;62.00;;;;;;5093768;28;20038;-64
2021/05/24 11:14:13;;;;;;;10.48;7.03;;;19.60;62.00;;;;;;5093849;28;20071;-64
2021/05/24 11:16:40;;;;;;;10.52;7.45;;;19.60;62.10;;;;;;5093041;28;20102;-64
2021/05/24 11:19:11;;;;;;;10.13;6.47;;;19.60;62.00;;;;;;5093607;28;20035;-64
2021/05/24 11:21:42;;;;;;;10.10;7.00;;;19.60;62.00;;;;;;5093562;28;20067;-64
2021/05/24 11:24:34;;;;;;;11.25;6.93;;;19.60;62.00;;;;;;5093484;28;20058;-65
2021/05/24 11:27:11;;;;;;;11.68;6.72;;;19.60;62.80;;;;;;5093095;28;20139;-64
2021/05/24 11:29:38;;;;;;;15.20;9.38;;;19.60;61.60;;;;;;5093258;28;20043;-63
2021/05/24 11:32:25;;;;;;;13.98;10.43;;;19.50;61.40;;;;;;5093089;28;20135;-63
2021/05/24 11:34:51;;;;;;;17.75;11.40;;;19.50;61.30;;;;;;5091939;28;20401;-65
2021/05/24 11:37:20;;;;;;;14.25;9.13;;;19.40;61.10;;;;;;5092914;28;20136;-65
2021/05/24 11:39:51;;;;;;;14.18;9.27;;;19.40;61.00;;;;;;5092821;28;20047;-64
2021/05/24 11:42:27;;;;;;;12.07;8.50;;;19.40;61.00;;;;;;5091946;28;20035;-65
2021/05/24 11:44:56;;;;;;;13.45;9.05;;;19.50;61.30;;;;;;5093193;28;20130;-63
2021/05/24 11:47:24;;;;;;;13.40;9.90;;;19.50;61.40;;;;;;5092603;28;20039;-64
2021/05/24 11:50:00;;;;;;;11.63;7.93;;;19.50;61.40;;;;;;5092891;28;20127;-63
2021/05/24 11:52:28;;;;;;;10.80;7.72;;;19.50;61.30;;;;;;5092543;28;20496;-64
2021/05/24 11:54:54;;;;;;;15.10;8.48;;;19.60;61.30;;;;;;5091595;28;20120;-64
2021/05/24 11:57:25;;;;;;;12.70;8.57;;;19.60;61.30;;;;;;5092416;28;20071;-64
2021/05/24 11:59:52;;;;;;;11.95;9.00;;;19.50;61.20;;;;;;5091529;28;20040;-64
2021/05/24 12:02:22;;;;;;;14.70;8.82;;;19.60;61.90;;;;;;5092442;28;20051;-64
2021/05/24 12:04:49;;;;;;;13.05;7.70;;;19.60;61.20;;;;;;5092474;28;20053;-64
2021/05/24 12:07:16;;;;;;;13.07;7.78;;;19.60;61.20;;;;;;5092514;28;20053;-64
2021/05/24 12:09:48;;;;;;;15.70;7.72;;;19.60;61.30;;;;;;5092852;28;20046;-63
2021/05/24 12:12:30;;;;;;;12.68;7.32;;;19.60;60.90;;;;;;5092452;28;20039;-64
2021/05/24 12:14:59;;;;;;;12.35;7.30;;;19.60;61.10;;;;;;5091405;28;20083;-64
2021/05/24 12:17:27;;;;;;;11.43;8.45;;;19.60;61.10;;;;;;5091417;28;20122;-64
2021/05/24 12:19:55;;;;;;;13.95;7.32;;;19.60;61.20;;;;;;5092264;28;20055;-64
2021/05/24 12:22:27;;;;;;;13.93;7.90;;;19.60;61.20;;;;;;5091194;28;20051;-64
2021/05/24 12:24:54;;;;;;;11.13;8.15;;;19.60;61.20;;;;;;5092441;28;20060;-64
2021/05/24 12:27:22;;;;;;;9.23;6.75;;;19.60;61.20;;;;;;5093108;28;20500;-64
2021/05/24 12:29:54;;;;;;;12.27;8.57;;;19.60;61.10;;;;;;5092036;28;20039;-64
2021/05/24 12:32:30;;;;;;;11.93;7.50;;;19.60;61.10;;;;;;5092317;28;20035;-64
2021/05/24 12:34:56;;;;;;;11.20;7.38;;;19.60;61.10;;;;;;5092236;28;20042;-64
2021/05/24 12:37:23;;;;;;;10.70;7.03;;;19.60;61.10;;;;;;5092040;28;20557;-64
2021/05/24 12:39:53;;;;;;;13.32;8.45;;;19.60;61.10;;;;;;5092225;28;20062;-64